createdAt,value
2022-08-16T00:01:49.355Z,17.92
2022-08-16T00:06:13.105Z,18.63
2022-08-16T00:10:38.106Z,22.45
2022-08-16T00:15:06.327Z,17.13
2022-08-16T00:19:41.850Z,17.10
2022-08-16T00:24:05.111Z,15.88
2022-08-16T00:28:34.227Z,17.35
2022-08-16T00:33:00.546Z,18.45
2022-08-16T00:37:57.923Z,15.35
2022-08-16T00:42:10.088Z,18.75
2022-08-16T00:47:02.491Z,17.38
2022-08-16T00:51:29.490Z,18.20
2022-08-16T00:55:56.994Z,17.85
2022-08-16T01:00:23.747Z,19.45
2022-08-16T01:05:10.512Z,18.95
2022-08-16T01:09:33.765Z,17.77
2022-08-16T01:14:05.146Z,18.58
2022-08-16T01:18:41.615Z,19.40
2022-08-16T01:24:00.881Z,19.42
2022-08-16T01:28:30.886Z,16.13
2022-08-16T01:33:14.711Z,16.10
2022-08-16T01:37:52.976Z,16.75
2022-08-16T01:42:20.172Z,17.10
2022-08-16T01:46:47.165Z,17.23
2022-08-16T01:51:17.427Z,20.88
2022-08-16T01:55:41.745Z,19.65
2022-08-16T02:00:19.316Z,18.58
2022-08-16T02:04:48.725Z,16.88
2022-08-16T02:09:23.226Z,17.50
2022-08-16T02:13:47.405Z,18.40
2022-08-16T02:18:18.527Z,17.52
2022-08-16T02:22:41.346Z,15.82
2022-08-16T02:27:04.280Z,16.38
2022-08-16T02:32:04.093Z,16.83
2022-08-16T02:36:14.241Z,15.88
2022-08-16T02:40:57.647Z,16.17
2022-08-16T02:45:27.800Z,19.63
2022-08-16T02:50:52.128Z,18.88
2022-08-16T02:54:35.424Z,22.48
2022-08-16T02:59:00.864Z,18.25
2022-08-16T03:03:26.325Z,18.77
2022-08-16T03:07:50.961Z,18.15
2022-08-16T03:12:16.439Z,18.23
2022-08-16T03:16:58.730Z,17.15
2022-08-16T03:21:28.004Z,19.38
2022-08-16T03:26:00.425Z,21.67
2022-08-16T03:30:30.866Z,18.63
2022-08-16T03:34:57.485Z,16.83
2022-08-16T03:39:20.303Z,16.83
2022-08-16T03:43:50.982Z,14.43
2022-08-16T03:48:18.363Z,13.63
2022-08-16T03:52:43.858Z,15.25
2022-08-16T03:57:11.504Z,13.85
2022-08-16T04:01:38.498Z,16.10
2022-08-16T04:06:02.280Z,17.13
2022-08-16T04:10:36.304Z,15.30
2022-08-16T04:15:07.168Z,14.23
2022-08-16T04:19:35.946Z,14.30
2022-08-16T04:23:58.845Z,13.20
2022-08-16T04:28:52.172Z,12.05
2022-08-16T04:33:07.545Z,14.70
2022-08-16T04:37:32.846Z,16.27
2022-08-16T04:42:17.993Z,13.50
2022-08-16T04:47:03.137Z,13.35
2022-08-16T04:51:25.907Z,11.27
2022-08-16T04:55:53.367Z,9.68
2022-08-16T05:00:34.502Z,11.70
2022-08-16T05:05:17.804Z,11.13
2022-08-16T05:09:45.084Z,13.75
2022-08-16T05:14:20.211Z,12.63
2022-08-16T05:18:58.607Z,13.25
2022-08-16T05:23:23.206Z,11.52
2022-08-16T05:27:47.407Z,10.55
2022-08-16T05:32:32.453Z,9.07
2022-08-16T05:36:58.752Z,8.35
2022-08-16T05:41:32.226Z,9.23
2022-08-16T05:45:57.786Z,9.02
2022-08-16T05:50:20.468Z,9.90
2022-08-16T05:55:01.146Z,7.72
2022-08-16T05:59:28.106Z,8.50
2022-08-16T06:03:52.589Z,6.90
2022-08-16T06:08:31.764Z,13.60
2022-08-16T06:12:57.606Z,8.70
2022-08-16T06:17:22.847Z,8.32
2022-08-16T06:21:54.888Z,7.57
2022-08-16T06:26:18.608Z,7.75
2022-08-16T06:30:43.344Z,8.07
2022-08-16T06:35:07.905Z,4.38
2022-08-16T06:39:31.964Z,7.45
2022-08-16T06:44:02.046Z,8.30
2022-08-16T06:48:32.133Z,5.32
2022-08-16T06:52:58.181Z,5.85
2022-08-16T06:57:23.298Z,7.25
2022-08-16T07:01:53.731Z,10.80
2022-08-16T07:06:21.720Z,8.95
2022-08-16T07:10:52.287Z,7.38
2022-08-16T07:15:17.026Z,6.93
2022-08-16T07:20:03.474Z,4.43
2022-08-16T07:24:36.147Z,5.25
2022-08-16T07:29:08.726Z,5.40
2022-08-16T07:33:52.951Z,4.32
2022-08-16T07:38:33.893Z,11.50
2022-08-16T07:42:58.406Z,6.72
2022-08-16T07:47:24.643Z,8.75
2022-08-16T07:51:56.078Z,6.57
2022-08-16T07:56:23.407Z,6.68
2022-08-16T08:00:58.520Z,14.52
2022-08-16T08:05:25.427Z,5.95
2022-08-16T08:10:00.029Z,10.75
2022-08-16T08:14:30.011Z,4.95
2022-08-16T08:19:00.926Z,7.43
2022-08-16T08:23:25.826Z,7.68
2022-08-16T08:27:48.665Z,6.28
2022-08-16T08:32:58.422Z,7.85
2022-08-16T08:36:57.855Z,7.43
2022-08-16T08:41:32.733Z,6.38
2022-08-16T08:45:57.530Z,11.60
2022-08-16T08:50:31.604Z,3.78
2022-08-16T08:54:55.426Z,8.77
2022-08-16T08:59:20.361Z,7.28
2022-08-16T09:03:44.867Z,5.32
2022-08-16T09:08:09.086Z,7.50
2022-08-16T09:12:53.773Z,4.97
2022-08-16T09:17:48.735Z,4.93
2022-08-16T09:22:20.014Z,6.95
2022-08-16T09:26:46.574Z,4.50
2022-08-16T09:31:11.226Z,8.25
2022-08-16T09:35:37.218Z,3.20
2022-08-16T09:40:02.495Z,6.72
2022-08-16T09:45:11.228Z,6.50
2022-08-16T09:49:36.760Z,4.32
2022-08-16T09:53:59.845Z,6.40
2022-08-16T09:58:40.542Z,3.42
2022-08-16T10:03:06.084Z,3.45
2022-08-16T10:07:44.734Z,2.72
2022-08-16T10:12:26.822Z,4.15
2022-08-16T10:16:51.605Z,4.93
2022-08-16T10:21:22.690Z,6.85
2022-08-16T10:27:00.727Z,7.30
2022-08-16T10:30:32.744Z,3.05
2022-08-16T10:34:58.050Z,2.22
2022-08-16T10:39:20.806Z,4.65
2022-08-16T10:43:43.928Z,8.07
2022-08-16T10:48:27.522Z,4.30
2022-08-16T10:52:52.618Z,3.85
2022-08-16T10:57:24.585Z,5.80
2022-08-16T11:06:30.156Z,9.23
2022-08-16T11:11:06.901Z,4.88
2022-08-16T11:15:36.050Z,5.30
2022-08-16T11:20:41.391Z,2.90
2022-08-16T11:24:44.558Z,5.32
2022-08-16T11:29:15.514Z,5.43
2022-08-16T11:33:53.700Z,5.90
2022-08-16T11:38:46.600Z,4.65
2022-08-16T11:43:05.115Z,4.22
2022-08-16T11:47:27.502Z,6.15
2022-08-16T11:51:50.335Z,4.57
2022-08-16T11:56:14.873Z,8.27
2022-08-16T12:00:50.337Z,7.75
2022-08-16T12:05:16.767Z,7.57
2022-08-16T12:09:43.342Z,5.57
2022-08-16T12:14:08.359Z,7.75
2022-08-16T12:18:31.250Z,5.47
2022-08-16T12:22:54.662Z,11.52
2022-08-16T12:27:18.261Z,5.22
2022-08-16T12:32:26.636Z,7.25
2022-08-16T12:36:23.248Z,6.72
2022-08-16T12:40:53.050Z,5.50
2022-08-16T12:45:22.263Z,8.98
2022-08-16T12:49:45.169Z,9.10
2022-08-16T12:54:10.020Z,7.07
2022-08-16T12:58:48.661Z,7.20
2022-08-16T13:03:13.948Z,11.30
2022-08-16T13:07:45.170Z,8.90
2022-08-16T13:12:23.745Z,7.18
2022-08-16T13:16:47.546Z,12.23
2022-08-16T13:21:11.817Z,6.45
2022-08-16T13:25:37.197Z,7.28
2022-08-16T13:30:00.024Z,7.00
2022-08-16T13:34:22.645Z,4.70
2022-08-16T13:38:46.960Z,11.10
2022-08-16T13:43:11.788Z,8.25
2022-08-16T13:47:34.925Z,7.68
2022-08-16T13:51:57.805Z,5.78
2022-08-16T13:56:24.935Z,10.38
2022-08-16T14:00:47.319Z,7.18
2022-08-16T14:05:20.066Z,7.35
2022-08-16T14:09:45.344Z,5.30
2022-08-16T14:14:07.698Z,6.95
2022-08-16T14:18:33.517Z,7.32
2022-08-16T14:22:56.497Z,4.95
2022-08-16T14:27:24.785Z,7.45
2022-08-16T14:31:49.598Z,6.97
2022-08-16T14:36:25.193Z,10.90
2022-08-16T14:40:55.091Z,8.95
2022-08-16T14:45:22.864Z,7.07
2022-08-16T14:49:45.445Z,5.15
2022-08-16T14:54:11.427Z,6.50
2022-08-16T14:58:36.647Z,6.85
2022-08-16T15:03:04.833Z,4.43
2022-08-16T15:07:30.545Z,5.78
2022-08-16T15:11:56.984Z,7.85
2022-08-16T15:16:20.164Z,6.03
2022-08-16T15:20:44.445Z,6.13
2022-08-16T15:25:20.856Z,5.85
2022-08-16T15:29:44.189Z,6.72
2022-08-16T15:34:06.616Z,6.40
2022-08-16T15:39:02.681Z,5.47
2022-08-16T15:43:18.773Z,6.53
2022-08-16T15:47:42.924Z,5.32
2022-08-16T15:52:28.973Z,8.27
2022-08-16T15:56:55.371Z,4.32
2022-08-16T16:01:21.251Z,4.65
2022-08-16T16:05:52.586Z,6.50
2022-08-16T16:10:15.185Z,6.20
2022-08-16T16:14:37.984Z,8.25
2022-08-16T16:19:01.436Z,6.88
2022-08-16T16:23:31.422Z,7.65
2022-08-16T16:27:55.816Z,18.15
2022-08-16T16:32:34.125Z,14.05
2022-08-16T16:36:57.107Z,8.25
2022-08-16T16:41:24.863Z,8.15
2022-08-16T16:45:48.804Z,4.18
2022-08-16T16:50:13.063Z,8.13
2022-08-16T16:54:35.826Z,4.60
2022-08-16T16:59:01.532Z,7.78
2022-08-16T17:03:25.050Z,8.07
2022-08-16T17:07:48.102Z,10.32
2022-08-16T17:12:17.636Z,7.22
2022-08-16T17:16:47.344Z,6.35
2022-08-16T17:21:10.007Z,5.15
2022-08-16T17:25:36.621Z,6.03
2022-08-16T17:30:16.111Z,6.00
2022-08-16T17:34:46.435Z,7.05
2022-08-16T17:39:13.525Z,6.68
2022-08-16T17:43:44.170Z,3.80
2022-08-16T17:48:07.774Z,8.38
2022-08-16T17:52:30.165Z,13.00
2022-08-16T17:56:54.098Z,13.60
2022-08-16T18:01:18.290Z,9.60
2022-08-16T18:05:41.446Z,7.78
2022-08-16T18:10:05.224Z,12.18
2022-08-16T18:14:51.369Z,9.73
2022-08-16T18:19:11.009Z,12.05
2022-08-16T18:23:34.485Z,5.72
2022-08-16T18:27:56.955Z,9.13
2022-08-16T18:32:22.149Z,10.18
2022-08-16T18:36:49.226Z,16.38
2022-08-16T18:41:11.581Z,9.40
2022-08-16T18:45:37.075Z,7.07
2022-08-16T18:50:00.627Z,10.65
2022-08-16T18:54:24.828Z,9.80
2022-08-16T18:58:47.168Z,7.03
2022-08-16T19:03:15.657Z,5.97
2022-08-16T19:07:38.008Z,8.30
2022-08-16T19:12:05.490Z,12.55
2022-08-16T19:16:27.849Z,14.75
2022-08-16T19:20:51.465Z,6.63
2022-08-16T19:25:14.211Z,8.20
2022-08-16T19:29:37.439Z,9.30
2022-08-16T19:34:00.965Z,10.32
2022-08-16T19:38:23.539Z,7.90
2022-08-16T19:42:48.448Z,8.68
2022-08-16T19:47:11.625Z,10.48
2022-08-16T19:51:33.786Z,11.43
2022-08-16T19:55:56.406Z,17.65
2022-08-16T20:00:19.348Z,11.52
2022-08-16T20:04:42.699Z,13.73
2022-08-16T20:09:05.090Z,15.13
2022-08-16T20:13:27.559Z,7.93
2022-08-16T20:17:50.867Z,9.77
2022-08-16T20:22:52.416Z,11.98
2022-08-16T20:27:13.480Z,12.85
2022-08-16T20:31:35.979Z,6.53
2022-08-16T20:35:59.862Z,6.65
2022-08-16T20:40:34.206Z,8.48
2022-08-16T20:44:57.921Z,7.78
2022-08-16T20:49:20.271Z,10.45
2022-08-16T20:53:44.361Z,8.95
2022-08-16T20:58:06.670Z,8.55
2022-08-16T21:02:29.147Z,12.07
2022-08-16T21:06:53.856Z,12.48
2022-08-16T21:11:17.367Z,18.45
2022-08-16T21:15:39.728Z,14.75
2022-08-16T21:20:02.250Z,16.27
2022-08-16T21:24:25.207Z,12.82
2022-08-16T21:28:48.986Z,12.40
2022-08-16T21:33:15.846Z,11.23
2022-08-16T21:37:38.829Z,12.30
2022-08-16T21:42:01.415Z,9.00
2022-08-16T21:46:23.524Z,13.05
2022-08-16T21:50:46.127Z,11.93
2022-08-16T21:55:09.100Z,11.30
2022-08-16T21:59:31.514Z,11.40
2022-08-16T22:04:35.388Z,5.97
2022-08-16T22:08:45.640Z,8.32
2022-08-16T22:13:24.454Z,9.23
2022-08-16T22:17:46.697Z,9.52
2022-08-16T22:22:08.999Z,6.50
2022-08-16T22:26:40.877Z,8.38
2022-08-16T22:31:05.480Z,7.55
2022-08-16T22:35:27.707Z,6.70
2022-08-16T22:39:50.353Z,7.22
2022-08-16T22:44:13.356Z,9.32
2022-08-16T22:48:39.550Z,7.50
2022-08-16T22:53:06.424Z,7.88
2022-08-16T22:57:28.657Z,7.32
2022-08-16T23:01:51.357Z,14.25
2022-08-16T23:06:14.037Z,8.25
2022-08-16T23:10:36.896Z,8.20
2022-08-16T23:15:04.615Z,10.32
2022-08-16T23:19:27.436Z,7.45
2022-08-16T23:23:50.255Z,9.27
2022-08-16T23:28:14.690Z,8.55
2022-08-16T23:32:45.229Z,7.70
2022-08-16T23:37:07.774Z,10.48
2022-08-16T23:41:34.218Z,9.38
2022-08-16T23:46:01.059Z,6.82
2022-08-16T23:50:25.917Z,9.35
2022-08-16T23:54:48.325Z,7.07
2022-08-16T23:59:11.517Z,8.45
